Time;durP1;ratioP1;P1;durP2;ratioP2;P2;SDS_P1;SDS_P2;PMS_P1;PMS_P2;Temp;Humidity;BMP_temperature;BMP_pressure;BME280_temperature;BME280_humidity;BME280_pressure;Samples;Min_cycle;Max_cycle;Signal;HPM_P1;HPM_P2
2023/06/12 00:02:00;0.00;0.00;0.62;0.00;0.00;0.62;3.70;3.13;;;32.00;20.30;;;;;;2252553;61;20386;-65
2023/06/12 00:04:45;0.00;0.00;0.62;0.00;0.00;0.62;4.30;3.63;;;32.00;20.30;;;;;;2252575;61;20414;-66
2023/06/12 00:07:30;0.00;0.00;0.62;0.00;0.00;0.62;3.97;3.57;;;32.00;20.30;;;;;;2253079;61;20460;-65
2023/06/12 00:10:16;0.00;0.00;0.62;0.00;0.00;0.62;3.50;3.20;;;31.90;20.20;;;;;;2252956;61;20897;-65
2023/06/12 00:13:01;0.00;0.00;0.62;0.00;0.00;0.62;3.90;3.50;;;31.90;20.20;;;;;;2252600;61;20425;-66
2023/06/12 00:15:46;0.00;0.00;0.62;0.00;0.00;0.62;4.40;4.00;;;31.90;20.20;;;;;;2252868;61;20474;-66
2023/06/12 00:18:30;0.00;0.00;0.62;0.00;0.00;0.62;3.60;3.30;;;31.90;20.20;;;;;;2252865;61;20367;-64
2023/06/12 00:21:15;0.00;0.00;0.62;0.00;0.00;0.62;3.80;3.50;;;31.90;20.20;;;;;;2252776;61;20382;-67
2023/06/12 00:24:00;0.00;0.00;0.62;0.00;0.00;0.62;3.70;3.40;;;31.90;20.30;;;;;;2252909;61;20421;-66
2023/06/12 00:26:46;0.00;0.00;0.62;0.00;0.00;0.62;3.80;3.50;;;31.90;20.30;;;;;;2252645;61;20390;-67
2023/06/12 00:29:30;0.00;0.00;0.62;0.00;0.00;0.62;3.60;3.30;;;31.90;20.20;;;;;;2255435;61;20402;-67
2023/06/12 00:32:15;0.00;0.00;0.62;0.00;0.00;0.62;3.93;3.63;;;31.90;20.30;;;;;;2252582;61;20390;-67
2023/06/12 00:35:00;0.00;0.00;0.62;0.00;0.00;0.62;3.73;3.43;;;31.80;20.20;;;;;;2252372;61;20371;-67
2023/06/12 00:37:46;0.00;0.00;0.62;0.00;0.00;0.62;4.17;3.77;;;31.80;20.20;;;;;;2252966;61;20383;-66
2023/06/12 00:40:30;0.00;0.00;0.62;0.00;0.00;0.62;8.10;3.77;;;31.80;20.20;;;;;;2252479;61;20374;-65
2023/06/12 00:43:17;0.00;0.00;0.62;0.00;0.00;0.62;4.40;4.00;;;31.80;20.20;;;;;;2252165;61;20418;-66
2023/06/12 00:46:03;0.00;0.00;0.62;0.00;0.00;0.62;3.63;3.33;;;31.80;20.30;;;;;;2252753;61;20386;-67
2023/06/12 00:48:48;0.00;0.00;0.62;0.00;0.00;0.62;3.87;3.57;;;31.80;20.30;;;;;;2714842;45;20409;-67
2023/06/12 00:51:33;0.00;0.00;0.62;0.00;0.00;0.62;4.10;3.80;;;31.80;20.30;;;;;;2256831;61;20394;-65
2023/06/12 00:54:18;0.00;0.00;0.62;0.00;0.00;0.62;4.60;3.70;;;31.80;20.30;;;;;;2256860;61;20377;-66
2023/06/12 00:57:07;0.00;0.00;0.62;0.00;0.00;0.62;4.53;4.13;;;31.80;20.30;;;;;;2256873;61;20425;-65
2023/06/12 00:59:53;0.00;0.00;0.62;0.00;0.00;0.62;4.57;4.17;;;31.80;20.30;;;;;;2256350;61;20382;-65
2023/06/12 01:02:42;0.00;0.00;0.62;0.00;0.00;0.62;4.10;3.80;;;31.70;20.20;;;;;;2256170;61;20420;-66
2023/06/12 01:05:32;0.00;0.00;0.62;0.00;0.00;0.62;4.40;4.00;;;31.80;20.30;;;;;;2256354;61;20420;-66
2023/06/12 01:08:28;0.00;0.00;0.62;0.00;0.00;0.62;3.57;3.27;;;31.80;20.30;;;;;;2256348;61;21002;-67
2023/06/12 01:11:17;0.00;0.00;0.62;0.00;0.00;0.62;4.43;3.90;;;31.70;20.20;;;;;;2256052;61;20429;-67
2023/06/12 01:14:02;0.00;0.00;0.62;0.00;0.00;0.62;3.87;3.47;;;31.70;20.30;;;;;;2256380;61;20366;-64
2023/06/12 01:16:48;0.00;0.00;0.62;0.00;0.00;0.62;4.10;3.70;;;31.70;20.30;;;;;;2256979;61;20513;-66
2023/06/12 01:19:35;0.00;0.00;0.62;0.00;0.00;0.62;4.20;3.80;;;31.70;20.30;;;;;;2256226;61;20370;-67
2023/06/12 01:22:22;0.00;0.00;0.62;0.00;0.00;0.62;4.13;3.83;;;31.70;20.30;;;;;;2256469;61;20433;-66
2023/06/12 01:25:56;0.00;0.00;0.62;0.00;0.00;0.62;3.57;3.27;;;31.70;20.30;;;;;;2256591;61;20373;-65
2023/06/12 01:29:22;0.00;0.00;0.62;0.00;0.00;0.62;4.60;3.70;;;31.70;20.30;;;;;;2256635;61;20365;-67
2023/06/12 01:32:15;0.00;0.00;0.62;0.00;0.00;0.62;3.90;3.60;;;31.70;20.40;;;;;;2255964;61;20389;-67
2023/06/12 01:35:08;0.00;0.00;0.62;0.00;0.00;0.62;4.90;4.40;;;31.60;20.30;;;;;;2256235;61;20505;-66
2023/06/12 01:38:04;0.00;0.00;0.62;0.00;0.00;0.62;4.00;3.70;;;31.60;20.40;;;;;;2256092;61;20413;-66
2023/06/12 01:40:50;0.00;0.00;0.62;0.00;0.00;0.62;4.20;3.80;;;31.70;20.40;;;;;;2256533;61;20382;-67
2023/06/12 01:43:36;0.00;0.00;0.62;0.00;0.00;0.62;4.43;4.03;;;31.70;20.40;;;;;;2256120;61;20362;-67
2023/06/12 01:46:20;0.00;0.00;0.62;0.00;0.00;0.62;4.50;4.10;;;31.60;20.40;;;;;;2256458;61;20504;-66
2023/06/12 01:49:06;0.00;0.00;0.62;0.00;0.00;0.62;4.20;3.80;;;31.70;20.40;;;;;;2255997;61;20373;-65
2023/06/12 01:51:51;0.00;0.00;0.62;0.00;0.00;0.62;4.03;3.73;;;31.60;20.40;;;;;;2256058;61;20385;-65
2023/06/12 01:54:36;0.00;0.00;0.62;0.00;0.00;0.62;4.60;4.20;;;31.60;20.50;;;;;;2256812;61;20461;-64
2023/06/12 01:57:21;0.00;0.00;0.62;0.00;0.00;0.62;4.67;4.27;;;31.60;20.50;;;;;;2256265;61;20366;-65
2023/06/12 02:00:09;0.00;0.00;0.62;0.00;0.00;0.62;4.57;4.17;;;31.60;20.50;;;;;;2256067;61;20952;-65
2023/06/12 02:03:06;0.00;0.00;0.62;0.00;0.00;0.62;4.97;4.57;;;31.60;20.50;;;;;;2256301;61;20362;-65
2023/06/12 02:05:52;0.00;0.00;0.62;0.00;0.00;0.62;4.90;4.50;;;31.60;20.50;;;;;;2256163;61;20416;-67
2023/06/12 02:08:36;0.00;0.00;0.62;0.00;0.00;0.62;6.37;4.77;;;31.60;20.50;;;;;;2256433;61;20412;-64
2023/06/12 02:11:23;0.00;0.00;0.62;0.00;0.00;0.62;5.27;4.77;;;31.50;20.50;;;;;;2256042;61;20428;-66
2023/06/12 02:14:10;0.00;0.00;0.62;0.00;0.00;0.62;4.77;4.37;;;31.60;20.50;;;;;;2255885;61;20896;-65
2023/06/12 02:16:55;0.00;0.00;0.62;0.00;0.00;0.62;4.63;4.23;;;31.60;20.50;;;;;;2256163;61;20405;-65
2023/06/12 02:19:41;0.00;0.00;0.62;0.00;0.00;0.62;4.47;4.07;;;31.50;20.50;;;;;;2255971;61;20366;-65
2023/06/12 02:22:27;0.00;0.00;0.62;0.00;0.00;0.62;4.60;4.20;;;31.60;20.60;;;;;;2256359;61;20444;-65
2023/06/12 02:25:12;0.00;0.00;0.62;0.00;0.00;0.62;5.00;4.50;;;31.50;20.50;;;;;;2255690;61;20413;-64
2023/06/12 02:27:57;0.00;0.00;0.62;0.00;0.00;0.62;5.50;5.03;;;31.50;20.50;;;;;;2255994;61;20744;-64
2023/06/12 02:30:42;0.00;0.00;0.62;0.00;0.00;0.62;4.47;4.07;;;31.50;20.50;;;;;;2256064;61;20509;-64
2023/06/12 02:33:27;0.00;0.00;0.62;0.00;0.00;0.62;4.53;4.13;;;31.50;20.50;;;;;;2253055;61;20377;-65
2023/06/12 02:36:12;0.00;0.00;0.62;0.00;0.00;0.62;5.30;4.40;;;31.50;20.50;;;;;;2253241;61;20919;-64
2023/06/12 02:38:58;0.00;0.00;0.62;0.00;0.00;0.62;4.77;4.30;;;31.50;20.50;;;;;;2256112;61;20954;-65
2023/06/12 02:41:46;0.00;0.00;0.62;0.00;0.00;0.62;4.57;4.17;;;31.50;20.60;;;;;;2255896;61;20385;-66
2023/06/12 02:44:31;0.00;0.00;0.62;0.00;0.00;0.62;4.83;4.33;;;31.50;20.60;;;;;;2256055;61;20425;-66
2023/06/12 02:47:18;0.00;0.00;0.62;0.00;0.00;0.62;5.40;4.90;;;31.50;20.60;;;;;;2255722;61;20394;-64
2023/06/12 02:50:05;0.00;0.00;0.62;0.00;0.00;0.62;5.63;5.13;;;31.50;20.60;;;;;;2255891;61;20904;-65
2023/06/12 02:52:59;0.00;0.00;0.62;0.00;0.00;0.62;4.90;4.50;;;31.50;20.60;;;;;;2255667;61;20514;-64
2023/06/12 02:55:45;0.00;0.00;0.62;0.00;0.00;0.62;5.80;5.07;;;31.50;20.70;;;;;;2255785;61;20421;-64
2023/06/12 02:58:30;0.00;0.00;0.62;0.00;0.00;0.62;4.93;4.53;;;31.40;20.60;;;;;;2255901;61;20446;-65
2023/06/12 03:01:16;0.00;0.00;0.62;0.00;0.00;0.62;4.77;4.37;;;31.40;20.60;;;;;;2256074;61;20399;-65
2023/06/12 03:04:01;0.00;0.00;0.62;0.00;0.00;0.62;5.53;5.03;;;31.40;20.60;;;;;;2255729;61;20353;-64
2023/06/12 03:06:48;0.00;0.00;0.62;0.00;0.00;0.62;5.87;5.37;;;31.40;20.60;;;;;;2255783;61;20432;-64
2023/06/12 03:09:32;0.00;0.00;0.62;0.00;0.00;0.62;5.93;4.47;;;31.40;20.60;;;;;;2255617;61;20358;-64
2023/06/12 03:12:18;0.00;0.00;0.62;0.00;0.00;0.62;5.33;4.83;;;31.40;20.70;;;;;;2255583;61;20401;-65
2023/06/12 03:15:05;0.00;0.00;0.62;0.00;0.00;0.62;5.80;5.30;;;31.40;20.60;;;;;;2256150;61;20405;-64
2023/06/12 03:17:50;0.00;0.00;0.62;0.00;0.00;0.62;4.93;4.53;;;31.40;20.70;;;;;;2255811;61;20458;-64
2023/06/12 03:20:35;0.00;0.00;0.62;0.00;0.00;0.62;5.27;4.87;;;31.40;20.70;;;;;;2256208;61;20505;-64
2023/06/12 03:23:19;0.00;0.00;0.62;0.00;0.00;0.62;5.70;5.20;;;31.40;20.70;;;;;;2256174;61;20361;-65
2023/06/12 03:26:04;0.00;0.00;0.62;0.00;0.00;0.62;5.83;5.27;;;31.40;20.70;;;;;;2256354;61;20600;-65
2023/06/12 03:28:51;0.00;0.00;0.62;0.00;0.00;0.62;5.00;4.50;;;31.40;20.70;;;;;;2255861;61;20413;-65
2023/06/12 03:31:36;0.00;0.00;0.62;0.00;0.00;0.62;5.73;5.23;;;31.30;20.70;;;;;;2255522;61;20421;-65
2023/06/12 03:34:22;0.00;0.00;0.62;0.00;0.00;0.62;5.13;4.73;;;31.30;20.70;;;;;;2256367;61;20888;-65
2023/06/12 03:37:07;0.00;0.00;0.62;0.00;0.00;0.62;5.60;5.10;;;31.30;20.70;;;;;;2255699;61;20446;-65
2023/06/12 03:39:52;0.00;0.00;0.62;0.00;0.00;0.62;5.80;5.30;;;31.30;20.70;;;;;;2256196;61;20908;-66
2023/06/12 03:42:37;0.00;0.00;0.62;0.00;0.00;0.62;5.17;4.63;;;31.30;20.70;;;;;;2255367;61;20474;-65
2023/06/12 03:45:24;0.00;0.00;0.62;0.00;0.00;0.62;5.47;4.97;;;31.30;20.70;;;;;;2255723;61;20370;-66
2023/06/12 03:48:09;0.00;0.00;0.62;0.00;0.00;0.62;5.47;4.97;;;31.30;20.70;;;;;;2255509;61;20431;-66
2023/06/12 03:50:55;0.00;0.00;0.62;0.00;0.00;0.62;5.57;5.07;;;31.30;20.70;;;;;;2255753;61;20425;-65
2023/06/12 03:53:40;0.00;0.00;0.62;0.00;0.00;0.62;5.07;4.67;;;31.30;20.70;;;;;;2486324;53;20492;-66
2023/06/12 03:56:25;0.00;0.00;0.62;0.00;0.00;0.62;5.10;4.60;;;31.30;20.80;;;;;;2251743;61;20358;-66
2023/06/12 03:59:10;0.00;0.00;0.62;0.00;0.00;0.62;7.10;6.50;;;31.30;20.80;;;;;;2252232;61;20365;-65
2023/06/12 04:01:58;0.00;0.00;0.62;0.00;0.00;0.62;6.60;6.00;;;31.30;20.80;;;;;;2251386;61;20382;-65
2023/06/12 04:04:43;0.00;0.00;0.62;0.00;0.00;0.62;6.73;6.23;;;31.30;20.80;;;;;;2251695;61;20860;-65
2023/06/12 04:07:28;0.00;0.00;0.62;0.00;0.00;0.62;5.47;4.93;;;31.30;20.80;;;;;;2252209;61;20386;-65
2023/06/12 04:10:13;0.00;0.00;0.62;0.00;0.00;0.62;5.27;4.77;;;31.30;20.80;;;;;;2252232;61;20789;-66
2023/06/12 04:12:58;0.00;0.00;0.62;0.00;0.00;0.62;5.50;5.00;;;31.30;20.90;;;;;;2251558;61;20398;-64
2023/06/12 04:15:43;0.00;0.00;0.62;0.00;0.00;0.62;4.93;4.53;;;31.20;20.90;;;;;;2252071;61;20765;-65
2023/06/12 04:18:30;0.00;0.00;0.62;0.00;0.00;0.62;5.77;5.27;;;31.20;20.80;;;;;;2251710;61;20940;-64
2023/06/12 04:21:16;0.00;0.00;0.62;0.00;0.00;0.62;5.83;5.30;;;31.20;20.90;;;;;;2251715;61;20425;-64
2023/06/12 04:24:05;0.00;0.00;0.62;0.00;0.00;0.62;5.50;4.80;;;31.20;20.90;;;;;;2251682;61;20418;-64
2023/06/12 04:26:50;0.00;0.00;0.62;0.00;0.00;0.62;5.20;4.80;;;31.20;20.90;;;;;;2252007;61;20383;-65
2023/06/12 04:29:37;0.00;0.00;0.62;0.00;0.00;0.62;5.90;5.00;;;31.20;20.90;;;;;;2251641;61;20357;-65
2023/06/12 04:32:23;0.00;0.00;0.62;0.00;0.00;0.62;6.80;5.80;;;31.20;20.90;;;;;;2251657;61;20379;-65
2023/06/12 04:35:10;0.00;0.00;0.62;0.00;0.00;0.62;5.50;5.00;;;31.20;20.90;;;;;;2251724;61;20413;-65
2023/06/12 04:37:55;0.00;0.00;0.62;0.00;0.00;0.62;6.17;5.67;;;31.10;20.90;;;;;;2252272;61;20382;-66
2023/06/12 04:40:40;0.00;0.00;0.62;0.00;0.00;0.62;5.17;4.67;;;31.20;21.00;;;;;;2252429;61;20437;-64
2023/06/12 04:43:25;0.00;0.00;0.62;0.00;0.00;0.62;5.30;4.87;;;31.20;21.00;;;;;;2252235;61;20596;-66
2023/06/12 04:46:13;0.00;0.00;0.62;0.00;0.00;0.62;4.47;4.10;;;31.20;21.00;;;;;;2252648;61;20777;-65
2023/06/12 04:48:59;0.00;0.00;0.62;0.00;0.00;0.62;5.00;4.60;;;31.10;20.90;;;;;;2487031;53;20948;-66
2023/06/12 04:51:48;0.00;0.00;0.62;0.00;0.00;0.62;5.47;5.00;;;31.20;21.00;;;;;;2253039;61;20946;-66
2023/06/12 04:54:35;0.00;0.00;0.62;0.00;0.00;0.62;5.10;4.60;;;31.20;21.00;;;;;;2256131;61;20416;-65
2023/06/12 04:57:21;0.00;0.00;0.62;0.00;0.00;0.62;5.27;4.77;;;31.10;20.90;;;;;;2256326;61;20434;-65
2023/06/12 05:00:14;0.00;0.00;0.62;0.00;0.00;0.62;5.03;4.63;;;31.10;21.00;;;;;;2255967;61;20760;-64
2023/06/12 05:02:59;0.00;0.00;0.62;0.00;0.00;0.62;4.73;4.33;;;31.20;21.00;;;;;;2256098;61;20406;-65
2023/06/12 05:05:45;0.00;0.00;0.62;0.00;0.00;0.62;5.00;4.50;;;31.10;21.00;;;;;;2256674;61;20357;-65
2023/06/12 05:08:31;0.00;0.00;0.62;0.00;0.00;0.62;5.37;4.90;;;31.10;21.50;;;;;;2256167;61;20370;-65
2023/06/12 05:11:16;0.00;0.00;0.62;0.00;0.00;0.62;4.40;4.00;;;31.10;21.00;;;;;;2256574;61;20919;-65
2023/06/12 05:14:01;0.00;0.00;0.62;0.00;0.00;0.62;4.73;4.33;;;31.10;21.00;;;;;;2256131;61;20416;-65
2023/06/12 05:16:46;0.00;0.00;0.62;0.00;0.00;0.62;4.87;4.30;;;31.10;21.00;;;;;;2256100;61;20369;-68
2023/06/12 05:19:31;0.00;0.00;0.62;0.00;0.00;0.62;5.03;4.63;;;31.10;21.00;;;;;;2256653;61;20938;-65
2023/06/12 05:22:15;0.00;0.00;0.62;0.00;0.00;0.62;5.53;5.03;;;31.10;21.00;;;;;;2256182;61;20437;-65
2023/06/12 05:25:03;0.00;0.00;0.62;0.00;0.00;0.62;6.03;5.53;;;31.10;21.00;;;;;;2256462;61;20899;-65
2023/06/12 05:27:48;0.00;0.00;0.62;0.00;0.00;0.62;4.80;4.40;;;31.10;21.00;;;;;;2256634;61;20374;-64
2023/06/12 05:30:33;0.00;0.00;0.62;0.00;0.00;0.62;5.23;4.83;;;31.10;21.10;;;;;;2256511;61;20402;-65
2023/06/12 05:33:19;0.00;0.00;0.62;0.00;0.00;0.62;5.37;4.87;;;31.10;21.10;;;;;;2253256;61;20366;-65
2023/06/12 05:36:04;0.00;0.00;0.62;0.00;0.00;0.62;5.40;4.90;;;31.10;21.10;;;;;;2256229;61;20342;-65
2023/06/12 05:38:49;0.00;0.00;0.62;0.00;0.00;0.62;5.47;4.97;;;31.10;21.10;;;;;;2256404;61;20381;-65
2023/06/12 05:41:35;0.00;0.00;0.62;0.00;0.00;0.62;5.40;4.90;;;31.10;21.10;;;;;;2253082;61;20382;-65
2023/06/12 05:44:20;0.00;0.00;0.62;0.00;0.00;0.62;5.23;4.77;;;31.10;21.10;;;;;;2256321;61;20884;-65
2023/06/12 05:47:05;0.00;0.00;0.62;0.00;0.00;0.62;5.77;5.20;;;31.10;21.10;;;;;;2256129;61;20429;-66
2023/06/12 05:49:51;0.00;0.00;0.62;0.00;0.00;0.62;6.23;5.63;;;31.10;21.20;;;;;;2256708;61;20381;-64
2023/06/12 05:52:36;0.00;0.00;0.62;0.00;0.00;0.62;6.10;5.50;;;31.10;21.10;;;;;;2255845;61;20505;-65
2023/06/12 05:55:21;0.00;0.00;0.62;0.00;0.00;0.62;6.20;5.70;;;31.10;21.30;;;;;;2256113;61;20358;-64
2023/06/12 05:58:07;0.00;0.00;0.62;0.00;0.00;0.62;5.97;5.47;;;31.10;21.20;;;;;;2256689;61;20354;-65
2023/06/12 06:00:52;0.00;0.00;0.62;0.00;0.00;0.62;6.27;5.67;;;31.10;21.20;;;;;;2255776;61;20955;-66
2023/06/12 06:03:56;0.00;0.00;0.62;0.00;0.00;0.62;6.70;6.00;;;31.10;21.20;;;;;;2255964;61;20834;-64
2023/06/12 06:06:41;0.00;0.00;0.62;0.00;0.00;0.62;5.87;5.40;;;31.10;21.20;;;;;;2255757;61;20393;-65
2023/06/12 06:09:29;0.00;0.00;0.62;0.00;0.00;0.62;5.50;5.00;;;31.10;21.20;;;;;;2255899;61;20409;-63
2023/06/12 06:12:15;0.00;0.00;0.62;0.00;0.00;0.62;6.80;6.20;;;31.10;21.20;;;;;;2255554;61;20389;-64
2023/06/12 06:15:01;0.00;0.00;0.62;0.00;0.00;0.62;6.63;5.70;;;31.10;21.20;;;;;;2255605;61;20409;-64
2023/06/12 06:17:46;0.00;0.00;0.62;0.00;0.00;0.62;6.57;6.03;;;31.10;21.30;;;;;;2256116;61;20916;-65
2023/06/12 06:20:33;0.00;0.00;0.62;0.00;0.00;0.62;6.00;5.47;;;31.10;21.30;;;;;;2255727;61;20361;-65
2023/06/12 06:23:18;0.00;0.00;0.62;0.00;0.00;0.62;6.73;6.13;;;31.10;21.30;;;;;;2255751;61;20800;-65
2023/06/12 06:26:04;0.00;0.00;0.62;0.00;0.00;0.62;6.27;5.73;;;31.10;21.30;;;;;;2253125;61;20986;-65
2023/06/12 06:28:49;0.00;0.00;0.62;0.00;0.00;0.62;7.40;6.60;;;31.10;21.30;;;;;;2255742;61;20394;-66
2023/06/12 06:31:35;0.00;0.00;0.62;0.00;0.00;0.62;6.07;5.47;;;31.10;21.30;;;;;;2255899;61;20386;-65
2023/06/12 06:34:20;0.00;0.00;0.62;0.00;0.00;0.62;6.23;5.73;;;31.10;21.30;;;;;;2256054;61;20397;-65
2023/06/12 06:37:06;0.00;0.00;0.62;0.00;0.00;0.62;6.57;6.00;;;31.10;21.30;;;;;;2256177;61;20385;-65
2023/06/12 06:39:51;0.00;0.00;0.62;0.00;0.00;0.62;6.37;5.87;;;31.10;21.30;;;;;;2256360;61;20456;-65
2023/06/12 06:42:36;0.00;0.00;0.62;0.00;0.00;0.62;5.93;5.40;;;31.10;21.40;;;;;;2255631;61;20410;-65
2023/06/12 06:45:23;0.00;0.00;0.62;0.00;0.00;0.62;6.50;5.90;;;31.10;21.40;;;;;;2256304;61;20888;-65
2023/06/12 06:48:13;0.00;0.00;0.62;0.00;0.00;0.62;7.07;6.50;;;31.10;21.40;;;;;;2255786;61;20393;-64
2023/06/12 06:50:59;0.00;0.00;0.62;0.00;0.00;0.62;6.90;5.93;;;31.10;21.40;;;;;;2256175;61;20425;-66
2023/06/12 06:53:44;0.00;0.00;0.62;0.00;0.00;0.62;6.37;5.87;;;31.10;21.40;;;;;;2486963;53;20378;-66
2023/06/12 06:56:30;0.00;0.00;0.62;0.00;0.00;0.62;7.00;6.40;;;31.10;21.40;;;;;;2251816;61;20943;-66
2023/06/12 06:59:15;0.00;0.00;0.62;0.00;0.00;0.62;7.07;6.47;;;31.10;21.40;;;;;;2251571;61;20363;-66
2023/06/12 07:01:59;0.00;0.00;0.62;0.00;0.00;0.62;6.00;5.50;;;31.10;21.40;;;;;;2252171;61;20891;-66
2023/06/12 07:04:46;0.00;0.00;0.62;0.00;0.00;0.62;6.00;5.50;;;31.10;21.40;;;;;;2251944;61;20398;-66
2023/06/12 07:07:32;0.00;0.00;0.62;0.00;0.00;0.62;7.00;6.30;;;31.10;21.40;;;;;;2251640;61;20429;-66
2023/06/12 07:10:17;0.00;0.00;0.62;0.00;0.00;0.62;5.93;5.43;;;31.10;21.50;;;;;;2251878;61;20398;-66
2023/06/12 07:13:02;0.00;0.00;0.62;0.00;0.00;0.62;6.67;6.17;;;31.10;21.50;;;;;;2252124;61;20498;-66
2023/06/12 07:15:54;0.00;0.00;0.62;0.00;0.00;0.62;6.20;5.70;;;31.10;21.50;;;;;;2251939;61;20358;-66
2023/06/12 07:18:41;0.00;0.00;0.62;0.00;0.00;0.62;7.37;6.77;;;31.10;21.50;;;;;;2251826;61;20847;-65
2023/06/12 07:21:27;0.00;0.00;0.62;0.00;0.00;0.62;6.20;5.60;;;31.10;21.50;;;;;;2251680;61;20478;-67
2023/06/12 07:24:17;0.00;0.00;0.62;0.00;0.00;0.62;6.93;6.33;;;31.10;21.50;;;;;;2252102;61;20371;-65
2023/06/12 07:27:02;0.00;0.00;0.62;0.00;0.00;0.62;7.17;6.47;;;31.10;21.50;;;;;;2252044;61;20460;-65
2023/06/12 07:29:47;0.00;0.00;0.62;0.00;0.00;0.62;7.10;6.50;;;31.10;21.50;;;;;;2251645;61;20458;-65
2023/06/12 07:32:32;0.00;0.00;0.62;0.00;0.00;0.62;6.40;5.80;;;31.10;21.50;;;;;;2251710;61;20394;-65
2023/06/12 07:35:17;0.00;0.00;0.62;0.00;0.00;0.62;5.17;4.77;;;31.10;21.50;;;;;;2252049;61;20363;-66
2023/06/12 07:38:03;0.00;0.00;0.62;0.00;0.00;0.62;6.10;5.60;;;31.10;21.50;;;;;;2251866;61;20833;-66
2023/06/12 07:40:48;0.00;0.00;0.62;0.00;0.00;0.62;6.47;5.90;;;31.10;21.50;;;;;;2251873;61;20394;-66
2023/06/12 07:43:34;0.00;0.00;0.62;0.00;0.00;0.62;5.43;5.03;;;31.10;21.60;;;;;;2251664;61;20366;-64
2023/06/12 07:46:19;0.00;0.00;0.62;0.00;0.00;0.62;5.67;5.17;;;31.10;21.60;;;;;;2252197;61;20371;-64
2023/06/12 07:49:04;0.00;0.00;0.62;0.00;0.00;0.62;6.67;6.03;;;31.10;21.60;;;;;;2255831;61;20409;-64
2023/06/12 07:51:49;0.00;0.00;0.62;0.00;0.00;0.62;6.60;6.00;;;31.10;21.60;;;;;;2255762;61;20385;-62
2023/06/12 07:54:36;0.00;0.00;0.62;0.00;0.00;0.62;6.07;5.57;;;31.10;21.60;;;;;;2256431;61;20357;-63
2023/06/12 07:57:21;0.00;0.00;0.62;0.00;0.00;0.62;6.20;5.70;;;31.10;21.60;;;;;;2255719;61;20362;-66
2023/06/12 08:00:08;0.00;0.00;0.62;0.00;0.00;0.62;6.23;5.50;;;31.10;21.60;;;;;;2255745;61;20843;-64
2023/06/12 08:03:04;0.00;0.00;0.62;0.00;0.00;0.62;6.90;6.30;;;31.10;21.60;;;;;;2256046;61;20358;-64
2023/06/12 08:05:55;0.00;0.00;0.62;0.00;0.00;0.62;6.20;5.70;;;31.10;22.20;;;;;;2255779;61;20409;-63
2023/06/12 08:08:41;0.00;0.00;0.62;0.00;0.00;0.62;6.10;5.57;;;31.10;21.60;;;;;;2255617;61;20374;-65
2023/06/12 08:11:28;0.00;0.00;0.62;0.00;0.00;0.62;6.17;5.67;;;31.10;21.60;;;;;;2256117;61;20427;-64
2023/06/12 08:14:13;0.00;0.00;0.62;0.00;0.00;0.62;5.57;5.07;;;31.10;21.60;;;;;;2256300;61;20365;-64
2023/06/12 08:16:58;0.00;0.00;0.62;0.00;0.00;0.62;4.93;4.53;;;31.10;21.70;;;;;;2253848;61;20830;-64
2023/06/12 08:19:44;0.00;0.00;0.62;0.00;0.00;0.62;5.83;5.33;;;31.10;21.70;;;;;;2256597;61;20357;-64
2023/06/12 08:22:29;0.00;0.00;0.62;0.00;0.00;0.62;6.43;5.83;;;31.10;21.70;;;;;;2256290;61;20432;-64
2023/06/12 08:25:14;0.00;0.00;0.62;0.00;0.00;0.62;6.30;5.70;;;31.10;21.70;;;;;;2256502;61;20386;-64
2023/06/12 08:28:01;0.00;0.00;0.62;0.00;0.00;0.62;5.90;5.40;;;31.20;21.70;;;;;;2256175;61;20385;-64
2023/06/12 08:30:46;0.00;0.00;0.62;0.00;0.00;0.62;5.20;4.80;;;31.20;21.80;;;;;;2256316;61;20951;-65
2023/06/12 08:33:32;0.00;0.00;0.62;0.00;0.00;0.62;6.10;5.50;;;31.20;21.70;;;;;;2256378;61;20366;-64
2023/06/12 08:36:16;0.00;0.00;0.62;0.00;0.00;0.62;5.77;5.27;;;31.20;21.80;;;;;;2256754;61;20370;-64
2023/06/12 08:39:01;0.00;0.00;0.62;0.00;0.00;0.62;5.27;4.77;;;31.10;21.70;;;;;;2256553;61;20420;-64
2023/06/12 08:41:59;0.00;0.00;0.62;0.00;0.00;0.62;6.17;5.63;;;31.10;21.70;;;;;;2256067;61;20930;-65
2023/06/12 08:44:46;0.00;0.00;0.62;0.00;0.00;0.62;5.40;4.90;;;31.10;21.80;;;;;;2256990;61;20404;-64
2023/06/12 08:47:35;0.00;0.00;0.62;0.00;0.00;0.62;5.90;5.40;;;31.10;21.70;;;;;;2256347;61;20389;-64
2023/06/12 08:50:20;0.00;0.00;0.62;0.00;0.00;0.62;5.50;5.10;;;31.20;21.80;;;;;;2256819;61;20416;-64
2023/06/12 08:53:05;0.00;0.00;0.62;0.00;0.00;0.62;5.47;5.00;;;31.20;21.80;;;;;;2256599;61;20764;-64
2023/06/12 08:55:50;0.00;0.00;0.62;0.00;0.00;0.62;5.83;5.33;;;31.20;21.80;;;;;;2256749;61;20365;-65
2023/06/12 08:58:35;0.00;0.00;0.62;0.00;0.00;0.62;5.83;5.03;;;31.20;21.80;;;;;;2256482;61;20439;-65
2023/06/12 09:01:22;0.00;0.00;0.62;0.00;0.00;0.62;5.57;5.13;;;31.20;21.80;;;;;;2256562;61;20708;-65
2023/06/12 09:04:16;0.00;0.00;0.62;0.00;0.00;0.62;5.70;5.20;;;31.20;21.80;;;;;;2256509;61;20366;-64
2023/06/12 09:07:03;0.00;0.00;0.62;0.00;0.00;0.62;6.00;5.50;;;31.20;21.90;;;;;;2256604;61;20409;-65
2023/06/12 09:09:48;0.00;0.00;0.62;0.00;0.00;0.62;4.87;4.47;;;31.20;21.90;;;;;;2256408;61;20934;-65
2023/06/12 09:12:32;0.00;0.00;0.62;0.00;0.00;0.62;5.30;4.90;;;31.20;21.80;;;;;;2256121;61;20440;-65
2023/06/12 09:15:19;0.00;0.00;0.62;0.00;0.00;0.62;4.63;4.23;;;31.20;21.90;;;;;;2256624;61;20516;-65
2023/06/12 09:18:10;0.00;0.00;0.62;0.00;0.00;0.62;4.80;4.40;;;31.20;21.80;;;;;;2256589;61;20904;-65
2023/06/12 09:20:56;0.00;0.00;0.62;0.00;0.00;0.62;4.67;4.27;;;31.20;21.80;;;;;;2256377;61;20847;-63
2023/06/12 09:23:43;0.00;0.00;0.62;0.00;0.00;0.62;5.30;4.80;;;31.20;21.80;;;;;;2256302;61;20405;-63
2023/06/12 09:26:28;0.00;0.00;0.62;0.00;0.00;0.62;4.80;4.40;;;31.20;21.80;;;;;;2256687;61;21131;-64
2023/06/12 09:29:12;0.00;0.00;0.62;0.00;0.00;0.62;4.90;4.50;;;31.20;21.80;;;;;;2256822;61;20421;-64
2023/06/12 09:31:59;0.00;0.00;0.62;0.00;0.00;0.62;4.93;4.43;;;31.20;21.80;;;;;;2256102;61;20466;-64
2023/06/12 09:34:48;0.00;0.00;0.62;0.00;0.00;0.62;4.17;3.87;;;31.30;21.80;;;;;;2256256;61;20365;-65
2023/06/12 09:37:33;0.00;0.00;0.62;0.00;0.00;0.62;5.00;4.50;;;31.20;22.30;;;;;;2256647;61;20362;-64
2023/06/12 09:40:18;0.00;0.00;0.62;0.00;0.00;0.62;4.70;4.30;;;31.20;21.70;;;;;;2256671;61;20409;-63
2023/06/12 09:43:05;0.00;0.00;0.62;0.00;0.00;0.62;4.50;4.10;;;31.30;21.70;;;;;;2256241;61;20420;-64
2023/06/12 09:45:49;0.00;0.00;0.62;0.00;0.00;0.62;4.53;4.13;;;31.20;21.70;;;;;;2256583;61;20911;-64
2023/06/12 09:48:35;0.00;0.00;0.62;0.00;0.00;0.62;4.13;3.83;;;31.20;21.70;;;;;;2255742;61;20393;-64
2023/06/12 09:51:23;0.00;0.00;0.62;0.00;0.00;0.62;4.37;3.97;;;31.20;21.70;;;;;;2256673;61;20932;-64
2023/06/12 09:54:10;0.00;0.00;0.62;0.00;0.00;0.62;5.00;4.60;;;31.30;21.70;;;;;;2256081;61;20888;-64
2023/06/12 09:57:00;0.00;0.00;0.62;0.00;0.00;0.62;4.80;4.40;;;31.30;21.70;;;;;;2256095;61;20353;-64
2023/06/12 09:59:46;0.00;0.00;0.62;0.00;0.00;0.62;4.30;3.90;;;31.30;21.70;;;;;;2256638;61;20369;-64
2023/06/12 10:02:31;0.00;0.00;0.62;0.00;0.00;0.62;4.43;4.03;;;31.30;21.70;;;;;;2256239;61;20816;-64
2023/06/12 10:05:22;0.00;0.00;0.62;0.00;0.00;0.62;4.40;4.00;;;31.20;21.70;;;;;;2256548;61;20454;-65
2023/06/12 10:08:09;0.00;0.00;0.62;0.00;0.00;0.62;4.30;3.90;;;31.30;21.70;;;;;;2256610;61;20517;-64
2023/06/12 10:10:54;0.00;0.00;0.62;0.00;0.00;0.62;3.80;3.50;;;31.30;21.70;;;;;;2256411;61;20474;-65
2023/06/12 10:13:39;0.00;0.00;0.62;0.00;0.00;0.62;3.73;3.30;;;31.30;21.70;;;;;;2256483;61;20358;-65
2023/06/12 10:16:25;0.00;0.00;0.62;0.00;0.00;0.62;4.60;4.20;;;31.30;21.70;;;;;;2256568;61;20405;-64
2023/06/12 10:19:11;0.00;0.00;0.62;0.00;0.00;0.62;3.80;3.50;;;31.30;21.60;;;;;;2256492;61;20406;-64
2023/06/12 10:21:57;0.00;0.00;0.62;0.00;0.00;0.62;4.20;3.80;;;31.30;21.60;;;;;;2255937;61;20382;-64
2023/06/12 10:24:43;0.00;0.00;0.62;0.00;0.00;0.62;4.00;3.50;;;31.30;21.60;;;;;;2256480;61;20413;-67
2023/06/12 10:27:29;0.00;0.00;0.62;0.00;0.00;0.62;4.00;3.70;;;31.30;21.60;;;;;;2256385;61;20374;-65
2023/06/12 10:30:17;0.00;0.00;0.62;0.00;0.00;0.62;4.13;3.73;;;31.40;21.70;;;;;;2256575;61;20365;-65
2023/06/12 10:33:13;0.00;0.00;0.62;0.00;0.00;0.62;4.40;4.00;;;31.40;21.70;;;;;;2255975;61;20362;-65
2023/06/12 10:35:57;0.00;0.00;0.62;0.00;0.00;0.62;3.90;3.60;;;31.40;21.70;;;;;;2256043;61;20366;-63
2023/06/12 10:38:48;0.00;0.00;0.62;0.00;0.00;0.62;3.80;3.50;;;31.40;21.70;;;;;;2256443;61;20922;-64
2023/06/12 10:41:36;0.00;0.00;0.62;0.00;0.00;0.62;3.33;3.03;;;31.40;21.70;;;;;;2256324;61;20382;-66
2023/06/12 10:44:37;0.00;0.00;0.62;0.00;0.00;0.62;3.60;3.10;;;31.40;21.70;;;;;;2255796;61;20933;-65
2023/06/12 10:47:24;0.00;0.00;0.62;0.00;0.00;0.62;4.33;3.40;;;31.40;21.70;;;;;;2256261;61;20402;-65
2023/06/12 10:50:09;0.00;0.00;0.62;0.00;0.00;0.62;3.50;3.20;;;31.40;21.70;;;;;;2528388;45;20446;-65
2023/06/12 10:52:57;0.00;0.00;0.62;0.00;0.00;0.62;3.23;2.93;;;31.40;21.70;;;;;;2254831;61;20424;-66
2023/06/12 10:55:43;0.00;0.00;0.62;0.00;0.00;0.62;3.67;3.37;;;31.40;21.60;;;;;;2255970;61;20450;-65
2023/06/12 10:58:36;0.00;0.00;0.62;0.00;0.00;0.62;3.77;3.47;;;31.40;21.60;;;;;;2256256;61;20361;-64